Ardsley, New York
Current Conditions -  °F | °C
As of 1:56 AM on Thursday 23 Oct 2014 (Local Time) from KHPN Reporting Station
Broken Clouds Broken Clouds  
Wind Chill: 51°   Ceiling: 2100
Heat Index: 51°   Visibility: 10mi
Dew Point: 45°   Wind: 14mph
Humidity: 80%   Direction: 10°N
Pressure: 29.71"   Gusts: 31mph
Location:  41.01°N, 73.84°W
Report Text: KHPN 230556Z 01012G27KT 10SM BKN021 BKN045 11/07 A2971 RMK AO2 PK WND 36027/0554 SLP060 60044 T01060072 10106 20094 56010
Loading
Personal Weather Stations






























Interactive Weather Map
Tropical Storm Tracking
New forecast layout! Learn more

10-Day Weather Forecast

Advertisements
Track Severe Weather on mobile